Time;durP1;ratioP1;P1;durP2;ratioP2;P2;SDS_P1;SDS_P2;PMS_P1;PMS_P2;Temp;Humidity;BMP_temperature;BMP_pressure;BME280_temperature;BME280_humidity;BME280_pressure;Samples;Min_cycle;Max_cycle;Signal;HPM_P1;HPM_P2
2023/03/25 00:01:24;;;;;;;14.48;2.67;;;;;;;11.89;62.18;98856.41;4913811;29;20376;-94
2023/03/25 00:03:52;;;;;;;20.48;2.38;;;;;;;11.69;63.38;98871.84;4898023;29;20020;-94
2023/03/25 00:06:18;;;;;;;19.35;2.90;;;;;;;11.81;62.96;98869.16;4898144;29;20111;-95
2023/03/25 00:08:43;;;;;;;13.30;2.55;;;;;;;11.63;63.58;98866.38;4897860;29;20120;-95
2023/03/25 00:11:09;;;;;;;17.30;2.38;;;;;;;12.34;61.60;98881.72;4897664;29;20035;-95
2023/03/25 00:13:35;;;;;;;16.02;2.42;;;;;;;11.91;61.41;98862.25;4897566;29;20080;-95
2023/03/25 00:16:02;;;;;;;19.48;2.50;;;;;;;11.92;61.57;98866.47;4897465;29;20491;-94
2023/03/25 00:18:32;;;;;;;24.48;4.18;;;;;;;11.92;61.64;98872.44;4913547;29;20028;-95
2023/03/25 00:21:01;;;;;;;12.32;1.90;;;;;;;11.79;61.22;98864.13;4897628;29;20059;-94
2023/03/25 00:23:28;;;;;;;23.58;3.10;;;;;;;11.92;61.75;98885.38;4912933;29;20028;-94
2023/03/25 00:25:58;;;;;;;31.95;3.10;;;;;;;12.09;60.95;98885.66;4898114;29;20039;-94
2023/03/25 00:28:27;;;;;;;16.00;3.05;;;;;;;11.97;61.15;98875.47;4897690;29;20128;-94
2023/03/25 00:30:53;;;;;;;24.98;4.35;;;;;;;12.16;61.00;98868.66;4897594;29;20424;-96
2023/03/25 00:33:18;;;;;;;25.92;3.95;;;;;;;11.74;61.91;98889.53;4913051;29;20028;-95
2023/03/25 00:35:43;;;;;;;23.50;3.13;;;;;;;11.79;61.08;98877.03;4897324;29;20387;-94
2023/03/25 00:38:12;;;;;;;14.65;2.05;;;;;;;11.92;60.95;98869.84;4897965;29;20021;-94
2023/03/25 00:40:38;;;;;;;18.75;2.20;;;;;;;12.01;60.75;98875.19;4897326;29;20036;-95
2023/03/25 00:43:05;;;;;;;15.73;2.55;;;;;;;11.81;100.00;98937.19;4897129;29;20040;-95
2023/03/25 00:45:31;;;;;;;20.77;2.53;;;;;;;11.29;100.00;98918.38;4912703;29;20063;-95
2023/03/25 00:47:57;;;;;;;19.88;4.07;;;;;;;11.37;100.00;98912.59;4896469;29;20522;-94
2023/03/25 00:50:23;;;;;;;16.60;2.55;;;;;;;11.65;100.00;98896.31;4913082;29;20017;-94
2023/03/25 00:52:50;;;;;;;18.42;2.67;;;;;;;11.59;79.90;98875.38;4897387;29;20039;-93
2023/03/25 00:55:16;;;;;;;19.95;4.05;;;;;;;11.31;69.91;98863.09;4897229;29;20058;-95
2023/03/25 00:57:41;;;;;;;14.98;2.92;;;;;;;11.62;68.38;98872.53;4897046;29;20035;-96
2023/03/25 01:00:11;;;;;;;20.17;3.00;;;;;;;11.78;66.82;98889.16;4897176;29;20491;-94
2023/03/25 01:02:39;;;;;;;19.67;3.22;;;;;;;11.56;66.04;98861.78;4912714;29;20024;-93
2023/03/25 01:05:05;;;;;;;19.60;2.90;;;;;;;11.88;66.75;98903.91;4896662;29;20032;-95
2023/03/25 01:07:31;;;;;;;29.02;2.83;;;;;;;11.59;67.77;98875.38;4897005;29;20084;-95
2023/03/25 01:09:59;;;;;;;18.35;3.42;;;;;;;11.96;66.92;98873.00;4896818;29;20383;-94
2023/03/25 01:12:25;;;;;;;27.23;3.58;;;;;;;11.70;67.47;98899.31;4896605;29;20084;-94
2023/03/25 01:14:52;;;;;;;20.60;2.22;;;;;;;11.81;67.80;98901.00;4912757;29;20024;-96
2023/03/25 01:17:18;;;;;;;23.48;3.30;;;;;;;11.83;67.24;98885.34;4913081;29;20067;-95
2023/03/25 01:19:43;;;;;;;19.90;3.50;;;;;;;11.74;67.15;98885.19;4896986;29;20065;-95
2023/03/25 01:22:09;;;;;;;27.17;3.80;;;;;;;11.41;68.09;98873.44;4896690;29;20041;-95
2023/03/25 01:24:34;;;;;;;37.95;4.78;;;;;;;11.51;67.65;98883.78;4912361;29;20044;-94
2023/03/25 01:27:00;;;;;;;25.70;3.40;;;;;;;11.91;67.30;98891.50;4896788;29;20020;-96
2023/03/25 01:29:26;;;;;;;27.23;4.32;;;;;;;11.66;66.44;98884.25;4912388;29;20464;-95
2023/03/25 01:31:52;;;;;;;27.23;4.70;;;;;;;11.70;65.47;98888.97;4896809;29;20031;-95
2023/03/25 01:34:18;;;;;;;23.13;3.40;;;;;;;11.77;65.75;98876.34;4912495;29;20041;-94
2023/03/25 01:36:45;;;;;;;19.17;3.47;;;;;;;11.64;66.71;98899.06;4912535;29;20033;-96
2023/03/25 01:39:12;;;;;;;23.25;3.00;;;;;;;11.49;65.56;98877.94;4912508;29;20029;-94
2023/03/25 01:41:38;;;;;;;24.25;3.63;;;;;;;11.64;65.52;98897.28;4912508;29;20037;-94
2023/03/25 01:44:05;;;;;;;30.95;4.28;;;;;;;11.72;66.13;98912.94;4896869;29;20376;-95
2023/03/25 01:46:30;;;;;;;36.25;4.38;;;;;;;11.51;65.34;98897.53;4896826;29;20032;-94
2023/03/25 01:48:58;;;;;;;26.13;3.85;;;;;;;11.44;65.48;98888.66;4896570;29;20035;-95
2023/03/25 01:51:28;;;;;;;29.95;5.07;;;;;;;11.41;65.74;98883.78;4896295;29;20453;-95
2023/03/25 01:53:54;;;;;;;32.42;5.72;;;;;;;11.22;66.19;98901.78;4912096;29;20033;-94
2023/03/25 01:56:29;;;;;;;33.03;4.18;;;;;;;11.52;65.91;98919.81;4896530;29;20031;-95
2023/03/25 01:58:57;;;;;;;33.80;4.95;;;;;;;11.54;66.13;98917.94;4898453;29;20024;-94
2023/03/25 02:01:25;;;;;;;26.13;4.60;;;;;;;11.42;66.00;98900.09;4900144;29;20494;-94
2023/03/25 02:04:01;;;;;;;23.35;4.13;;;;;;;11.62;66.12;98911.28;4900145;29;20032;-95
2023/03/25 02:06:32;;;;;;;27.17;4.65;;;;;;;11.52;66.66;98921.59;4900305;29;20028;-96
2023/03/25 02:09:00;;;;;;;31.55;3.92;;;;;;;11.76;66.39;98929.00;4900499;29;20025;-94
2023/03/25 02:11:28;;;;;;;39.90;4.70;;;;;;;11.62;67.42;98929.38;4899991;29;20029;-94
2023/03/25 02:13:56;;;;;;;27.73;3.72;;;;;;;11.98;67.29;98946.09;4899779;29;20488;-95
2023/03/25 02:16:55;;;;;;;28.23;4.57;;;;;;;11.85;67.11;98959.25;4915539;29;20024;-94
2023/03/25 02:19:36;;;;;;;25.52;3.42;;;;;;;11.96;66.72;98953.16;4899760;29;20387;-95
2023/03/25 02:22:24;;;;;;;30.75;4.50;;;;;;;12.01;66.35;98952.75;4899741;29;20025;-94
2023/03/25 02:24:53;;;;;;;26.85;3.47;;;;;;;11.93;66.39;98964.59;4915753;29;20028;-95
2023/03/25 02:27:32;;;;;;;23.05;3.25;;;;;;;11.71;66.63;98951.84;4900141;29;20526;-95
2023/03/25 02:30:07;;;;;;;31.77;4.60;;;;;;;11.78;66.67;98968.47;4899964;29;20499;-94
2023/03/25 02:32:55;;;;;;;29.58;3.60;;;;;;;12.02;66.10;98954.38;4899719;29;20124;-94
2023/03/25 02:35:51;;;;;;;35.38;4.25;;;;;;;12.06;66.77;98956.56;4899304;29;20028;-95
2023/03/25 02:38:25;;;;;;;27.23;4.30;;;;;;;11.91;68.58;98953.56;4899422;29;20569;-95
2023/03/25 02:41:00;;;;;;;30.50;4.30;;;;;;;11.46;72.57;98948.78;4899556;29;20617;-94
2023/03/25 02:43:43;;;;;;;36.70;4.30;;;;;;;11.62;74.15;98960.38;4899231;29;20039;-96
2023/03/25 02:46:14;;;;;;;37.38;8.75;;;;;;;11.45;74.39;98939.38;4899162;29;20119;-95
2023/03/25 02:48:46;;;;;;;31.92;5.70;;;;;;;11.40;73.11;98932.97;4915063;29;20025;-95
2023/03/25 02:51:35;;;;;;;52.00;5.75;;;;;;;11.70;71.73;98945.84;4899213;29;20032;-93
2023/03/25 02:54:11;;;;;;;39.38;4.78;;;;;;;11.66;70.38;98952.25;4899203;29;20025;-94
2023/03/25 02:56:39;;;;;;;41.78;5.35;;;;;;;11.73;70.33;98958.53;4899088;29;20383;-95
2023/03/25 02:59:07;;;;;;;38.05;4.95;;;;;;;11.87;70.02;98978.03;4914871;29;20024;-94
2023/03/25 03:01:33;;;;;;;28.52;4.30;;;;;;;11.66;70.08;98990.19;4899142;29;20044;-95
2023/03/25 03:03:59;;;;;;;29.20;4.82;;;;;;;11.45;68.82;98962.63;4899057;29;20029;-95
2023/03/25 03:06:26;;;;;;;33.70;6.07;;;;;;;11.81;69.13;98981.13;4899306;29;20036;-93
2023/03/25 03:09:01;;;;;;;35.33;5.05;;;;;;;11.66;69.32;98997.94;4898697;29;20506;-95
2023/03/25 03:11:32;;;;;;;42.92;5.93;;;;;;;11.92;68.55;98991.38;4913801;29;20028;-94
2023/03/25 03:14:14;;;;;;;32.05;5.82;;;;;;;11.68;68.32;98988.28;4898957;29;20033;-94
2023/03/25 03:16:47;;;;;;;;;;;;;;;12.20;66.93;99014.88;4898990;29;20487;-95
2023/03/25 03:19:15;;;;;;;;;;;;;;;12.28;66.36;99007.25;4898803;29;19919;-94
2023/03/25 03:22:00;;;;;;;30.70;4.65;;;;;;;11.84;67.53;98982.63;4898647;29;19994;-93
2023/03/25 03:24:37;;;;;;;30.63;4.43;;;;;;;11.91;67.06;99014.78;4898826;29;20028;-94
2023/03/25 03:27:15;;;;;;;39.42;5.28;;;;;;;12.07;66.07;99014.28;4898436;29;20027;-94
2023/03/25 03:29:48;;;;;;;40.53;7.50;;;;;;;11.96;66.41;99026.38;4898392;29;20052;-96
2023/03/25 03:32:31;;;;;;;34.47;5.85;;;;;;;11.85;66.45;98992.84;4898477;29;20029;-95
2023/03/25 03:35:05;;;;;;;38.05;5.15;;;;;;;12.34;65.00;99000.72;4898371;29;20032;-94
2023/03/25 03:37:35;;;;;;;29.10;4.85;;;;;;;12.13;65.55;98993.06;4898355;29;20391;-95
2023/03/25 03:40:05;;;;;;;34.15;5.72;;;;;;;11.78;65.92;98983.97;4898231;29;20104;-94
2023/03/25 03:42:39;;;;;;;44.75;5.25;;;;;;;12.25;65.32;99028.22;4914311;29;20051;-93
2023/03/25 03:45:09;;;;;;;40.10;5.22;;;;;;;11.90;65.42;99013.97;4898294;29;20127;-95
2023/03/25 03:47:42;;;;;;;40.92;4.65;;;;;;;11.91;65.11;98987.16;4914233;29;20025;-95
2023/03/25 03:50:14;;;;;;;31.58;5.13;;;;;;;11.96;65.36;98992.75;4913989;29;20035;-92
2023/03/25 03:52:44;;;;;;;;;;;;;;;12.13;64.41;99037.03;4898371;29;20080;-95
2023/03/25 03:55:20;;;;;;;32.13;4.35;;;;;;;11.86;64.63;98976.38;4897986;29;20002;-94
2023/03/25 03:57:53;;;;;;;38.55;5.13;;;;;;;11.84;65.89;99022.22;4913781;29;20039;-94
2023/03/25 04:00:28;;;;;;;28.40;4.50;;;;;;;12.04;65.15;99010.19;4897788;29;20427;-93
2023/03/25 04:03:03;;;;;;;42.53;5.03;;;;;;;11.83;65.32;99015.41;4913885;29;20031;-94
2023/03/25 04:05:31;;;;;;;34.88;4.20;;;;;;;11.52;65.96;98989.59;4898070;29;20065;-95
2023/03/25 04:08:03;;;;;;;33.90;5.80;;;;;;;11.60;65.45;99008.78;4897919;29;20032;-95
2023/03/25 04:10:45;;;;;;;29.02;4.78;;;;;;;11.79;65.64;99016.63;4913910;29;20471;-94
2023/03/25 04:13:13;;;;;;;41.22;5.90;;;;;;;11.78;65.40;99040.84;4898093;29;20529;-94
2023/03/25 04:15:40;;;;;;;29.02;4.35;;;;;;;11.80;65.26;99002.72;4913238;29;20073;-94
2023/03/25 04:18:05;;;;;;;26.60;5.30;;;;;;;11.37;66.86;99019.31;4897598;29;20575;-95
2023/03/25 04:20:35;;;;;;;37.38;5.13;;;;;;;11.52;66.79;99033.50;4897776;29;20119;-93
2023/03/25 04:23:04;;;;;;;41.00;4.72;;;;;;;11.71;66.25;99039.72;4913363;29;20029;-94
2023/03/25 04:25:31;;;;;;;30.90;4.25;;;;;;;11.76;65.75;99037.56;4897956;29;20029;-94
2023/03/25 04:27:58;;;;;;;31.02;5.00;;;;;;;11.73;65.31;99028.31;4913208;29;20056;-94
2023/03/25 04:30:26;;;;;;;37.70;6.03;;;;;;;11.77;65.68;99049.53;4913324;29;20092;-94
2023/03/25 04:32:51;;;;;;;30.77;4.88;;;;;;;11.67;65.49;99028.81;4897639;29;20032;-93
2023/03/25 04:35:18;;;;;;;32.28;4.97;;;;;;;11.37;65.93;99037.38;4897803;29;20029;-94
2023/03/25 04:37:45;;;;;;;30.88;3.83;;;;;;;11.50;65.86;99071.56;4897604;29;20024;-96
2023/03/25 04:40:17;;;;;;;23.33;4.40;;;;;;;11.54;65.60;99008.38;4897591;29;20039;-95
2023/03/25 04:42:45;;;;;;;24.00;3.90;;;;;;;11.53;65.94;99045.50;4897471;29;20104;-94
2023/03/25 04:45:15;;;;;;;43.90;6.47;;;;;;;11.92;64.49;99062.94;4897234;29;20033;-95
2023/03/25 04:47:43;;;;;;;32.95;4.47;;;;;;;11.93;64.84;99065.41;4897297;29;20032;-94
2023/03/25 04:50:20;;;;;;;25.48;4.43;;;;;;;11.84;64.30;99042.09;4897018;29;20487;-95
2023/03/25 04:52:46;;;;;;;34.80;5.00;;;;;;;11.53;64.31;99067.91;4897035;29;20083;-94
2023/03/25 04:55:16;;;;;;;42.85;4.45;;;;;;;11.60;65.55;99050.13;4912819;29;20480;-96
2023/03/25 04:57:43;;;;;;;34.17;4.43;;;;;;;12.03;63.83;99064.66;4897117;29;20024;-95
2023/03/25 05:00:10;;;;;;;25.00;3.75;;;;;;;11.81;63.78;99047.53;4897051;29;20027;-94
2023/03/25 05:02:36;;;;;;;27.27;4.50;;;;;;;11.35;65.49;99049.59;4897362;29;20024;-94
2023/03/25 05:05:03;;;;;;;21.95;3.67;;;;;;;11.82;64.44;99057.72;4896848;29;20128;-95
2023/03/25 05:07:29;;;;;;;30.98;5.80;;;;;;;12.32;62.94;99086.22;4897049;29;20119;-94
2023/03/25 05:09:56;;;;;;;40.08;6.10;;;;;;;11.78;63.56;99066.69;4912590;29;20436;-95
2023/03/25 05:12:22;;;;;;;19.83;3.30;;;;;;;11.55;63.82;99068.59;4896793;29;20035;-95
2023/03/25 05:14:47;;;;;;;26.27;3.58;;;;;;;11.85;63.65;99072.16;4912532;29;20028;-96
2023/03/25 05:17:12;;;;;;;26.83;3.92;;;;;;;12.09;62.96;99066.69;4897057;29;20111;-94
2023/03/25 05:19:42;;;;;;;29.33;4.03;;;;;;;11.75;63.75;99083.28;4897055;29;20459;-94
2023/03/25 05:22:08;;;;;;;32.65;4.57;;;;;;;11.91;63.14;99088.00;4897132;29;20031;-95
2023/03/25 05:24:33;;;;;;;27.20;4.32;;;;;;;11.46;64.84;99088.28;4896936;29;20024;-95
2023/03/25 05:27:01;;;;;;;25.33;3.95;;;;;;;11.71;63.62;99088.84;4896963;29;20029;-94
2023/03/25 05:29:27;;;;;;;31.15;4.80;;;;;;;11.79;64.11;99092.41;4896751;29;20025;-94
2023/03/25 05:31:52;;;;;;;31.92;3.50;;;;;;;11.80;64.14;99095.78;4896476;29;20025;-94
2023/03/25 05:34:19;;;;;;;28.42;5.68;;;;;;;11.72;64.40;99077.53;4899245;29;20032;-94
2023/03/25 05:36:45;;;;;;;29.67;4.40;;;;;;;11.69;64.37;99108.81;4900618;29;20029;-95
2023/03/25 05:39:10;;;;;;;28.92;4.35;;;;;;;11.40;67.46;99099.13;4900480;29;20036;-94
2023/03/25 05:41:38;;;;;;;25.60;3.72;;;;;;;11.81;68.29;99107.78;4900719;29;20112;-95
2023/03/25 05:44:06;;;;;;;20.77;4.88;;;;;;;11.64;67.94;99077.38;4900356;29;20029;-94
2023/03/25 05:46:32;;;;;;;21.65;3.08;;;;;;;11.50;69.01;99117.28;4900488;29;20036;-95
2023/03/25 05:48:59;;;;;;;22.38;3.10;;;;;;;11.39;70.07;99094.91;4900322;29;20036;-95
2023/03/25 05:51:26;;;;;;;20.75;4.40;;;;;;;11.61;70.44;99086.19;4900383;29;20040;-95
2023/03/25 05:53:52;;;;;;;29.30;4.53;;;;;;;11.30;71.28;99114.56;4915916;29;20120;-95
2023/03/25 05:56:19;;;;;;;29.08;3.85;;;;;;;11.52;70.52;99105.84;4900453;29;20025;-95
2023/03/25 05:58:49;;;;;;;21.33;2.38;;;;;;;10.98;71.57;99122.34;4900489;29;20155;-95
2023/03/25 06:01:16;;;;;;;26.10;3.78;;;;;;;11.20;71.64;99124.00;4916049;29;20428;-94
2023/03/25 06:03:43;;;;;;;27.15;3.60;;;;;;;10.96;74.03;99111.31;4899949;29;20028;-96
2023/03/25 06:06:12;;;;;;;21.40;3.70;;;;;;;11.11;73.67;99133.28;4899969;29;20096;-95
2023/03/25 06:08:45;;;;;;;16.63;2.83;;;;;;;11.40;72.17;99140.47;4899909;29;20025;-95
2023/03/25 06:11:12;;;;;;;27.33;3.42;;;;;;;11.10;72.15;99134.25;4899871;29;20044;-95
2023/03/25 06:13:38;;;;;;;21.13;4.00;;;;;;;11.31;72.17;99172.19;4900226;29;20028;-95
2023/03/25 06:16:07;;;;;;;28.05;4.20;;;;;;;10.98;72.09;99114.59;4900271;29;20028;-94
2023/03/25 06:18:33;;;;;;;26.20;5.80;;;;;;;11.10;73.50;99136.84;4915960;29;20024;-94
2023/03/25 06:20:58;;;;;;;26.45;4.85;;;;;;;11.51;72.47;99135.25;4915455;29;20024;-95
2023/03/25 06:23:25;;;;;;;31.58;6.20;;;;;;;11.51;71.93;99122.31;4899670;29;20039;-94
2023/03/25 06:25:51;;;;;;;38.05;4.85;;;;;;;11.21;74.80;99154.03;4915319;29;20138;-95
2023/03/25 06:28:18;;;;;;;33.95;4.63;;;;;;;11.24;76.43;99156.41;4899680;29;20511;-95
2023/03/25 06:30:45;;;;;;;29.75;3.20;;;;;;;11.13;74.89;99157.25;4899361;29;20154;-94
2023/03/25 06:33:12;;;;;;;32.97;6.32;;;;;;;11.16;73.87;99126.94;4899478;29;20028;-95
2023/03/25 06:35:42;;;;;;;41.47;5.07;;;;;;;11.11;73.26;99146.22;4915643;29;20036;-95
2023/03/25 06:38:09;;;;;;;29.65;4.13;;;;;;;11.22;72.11;99160.03;4900002;29;20025;-95
2023/03/25 06:40:38;;;;;;;38.83;4.53;;;;;;;11.74;69.75;99171.28;4915372;29;20028;-95
2023/03/25 06:43:05;;;;;;;29.70;4.90;;;;;;;11.40;71.18;99175.81;4899812;29;20028;-94
2023/03/25 06:45:31;;;;;;;29.15;4.13;;;;;;;11.67;70.54;99193.41;4897929;29;20035;-95
2023/03/25 06:47:57;;;;;;;32.33;3.85;;;;;;;10.98;71.70;99179.13;4914854;29;20032;-96
2023/03/25 06:50:22;;;;;;;25.58;4.65;;;;;;;11.48;71.11;99210.41;4899369;29;20060;-95
2023/03/25 06:52:48;;;;;;;30.45;4.15;;;;;;;11.56;70.72;99202.06;4899092;29;20029;-93
2023/03/25 06:55:14;;;;;;;31.77;5.60;;;;;;;11.84;69.76;99195.44;4899411;29;20604;-94
2023/03/25 06:57:40;;;;;;;32.65;5.85;;;;;;;11.87;68.69;99197.78;4900177;29;20031;-95
2023/03/25 07:00:07;;;;;;;25.75;4.00;;;;;;;11.82;69.27;99205.06;4915871;29;20120;-94
2023/03/25 07:02:33;;;;;;;29.23;4.35;;;;;;;12.17;67.84;99233.22;4899335;29;20028;-95
2023/03/25 07:04:58;;;;;;;36.83;5.25;;;;;;;12.16;68.66;99220.41;4899280;29;20033;-94
2023/03/25 07:07:24;;;;;;;25.13;4.13;;;;;;;12.33;68.83;99222.41;4915692;29;20495;-93
2023/03/25 07:09:51;;;;;;;33.63;5.00;;;;;;;12.01;69.90;99247.56;4900073;29;20111;-95
2023/03/25 07:12:17;;;;;;;30.08;4.05;;;;;;;11.79;69.51;99241.53;4899325;29;20084;-95
2023/03/25 07:14:43;;;;;;;34.08;4.28;;;;;;;11.65;70.34;99226.31;4900177;29;20033;-95
2023/03/25 07:17:08;;;;;;;23.17;3.75;;;;;;;12.70;67.52;99237.38;4899474;29;20044;-96
2023/03/25 07:19:34;;;;;;;38.20;4.65;;;;;;;13.39;64.05;99228.84;4914707;29;20056;-95
2023/03/25 07:21:59;;;;;;;44.33;6.70;;;;;;;12.98;64.51;99238.44;4899072;29;20076;-96
2023/03/25 07:24:25;;;;;;;35.13;5.40;;;;;;;13.09;64.22;99260.00;4915044;29;20115;-95
2023/03/25 07:26:50;;;;;;;28.80;5.28;;;;;;;13.88;62.51;99260.75;4899259;29;20466;-94
2023/03/25 07:29:15;;;;;;;25.02;4.28;;;;;;;14.57;59.75;99263.22;4898825;29;20051;-95
2023/03/25 07:31:41;;;;;;;36.90;5.07;;;;;;;13.74;61.77;99253.41;4898909;29;20029;-95
2023/03/25 07:34:09;;;;;;;38.75;4.82;;;;;;;12.75;65.25;99250.78;4898693;29;20181;-95
2023/03/25 07:36:35;;;;;;;31.45;4.50;;;;;;;13.10;64.04;99272.00;4899125;29;20108;-94
2023/03/25 07:39:01;;;;;;;39.50;6.72;;;;;;;13.42;63.03;99274.41;4899178;29;20033;-95
2023/03/25 07:41:26;;;;;;;32.20;4.30;;;;;;;12.88;64.99;99257.50;4898852;29;20067;-94
2023/03/25 07:43:54;;;;;;;36.45;6.65;;;;;;;12.87;65.42;99281.75;4898519;29;20476;-95
2023/03/25 07:46:19;;;;;;;38.13;4.50;;;;;;;12.94;65.58;99262.13;4914248;29;20036;-94
2023/03/25 07:48:45;;;;;;;30.83;6.25;;;;;;;12.76;66.03;99267.13;4914292;29;20123;-95
2023/03/25 07:51:10;;;;;;;43.83;6.75;;;;;;;13.02;64.79;99283.00;4898370;29;20024;-95
2023/03/25 07:53:37;;;;;;;36.38;6.35;;;;;;;12.95;64.95;99284.47;4898099;29;20040;-96
2023/03/25 07:56:04;;;;;;;29.40;4.65;;;;;;;13.13;64.69;99271.75;4897655;29;20028;-96
2023/03/25 07:58:30;;;;;;;39.35;5.57;;;;;;;13.43;63.73;99276.03;4898109;29;20494;-95
2023/03/25 08:00:56;;;;;;;34.70;4.55;;;;;;;12.93;65.59;99296.78;4898206;29;20025;-96
2023/03/25 08:03:22;;;;;;;40.22;5.50;;;;;;;12.37;65.85;99280.72;4898090;29;20033;-94
2023/03/25 08:05:47;;;;;;;32.83;4.53;;;;;;;12.97;64.68;99317.09;4913579;29;20028;-95
2023/03/25 08:08:13;;;;;;;28.05;4.50;;;;;;;13.26;63.82;99308.56;4897798;29;20472;-96
2023/03/25 08:10:46;;;;;;;42.92;5.00;;;;;;;13.13;62.86;99319.19;4898222;29;20092;-94
2023/03/25 08:13:11;;;;;;;29.92;5.20;;;;;;;13.75;61.98;99339.78;4913834;29;20036;-94
2023/03/25 08:15:37;;;;;;;510.27;115.45;;;;;;;13.22;62.72;99321.00;4897782;29;20848;-95
2023/03/25 08:18:05;;;;;;;512.28;114.93;;;;;;;14.15;60.45;99337.06;4897679;29;20408;-94
2023/03/25 08:20:30;;;;;;;527.10;127.25;;;;;;;15.24;55.26;99327.06;4897794;29;20057;-94
2023/03/25 08:22:57;;;;;;;16.92;2.80;;;;;;;15.07;56.55;99351.19;4897911;29;20032;-94
2023/03/25 08:25:23;;;;;;;14.85;2.53;;;;;;;14.90;56.87;99344.97;4897829;29;20028;-95
2023/03/25 08:27:48;;;;;;;27.08;3.67;;;;;;;17.22;52.58;99332.78;4897603;29;20057;-94
2023/03/25 08:30:14;;;;;;;18.17;2.85;;;;;;;16.38;52.22;99323.84;4897868;29;20498;-94
2023/03/25 08:32:40;;;;;;;24.88;3.28;;;;;;;15.43;54.96;99369.50;4897631;29;20029;-96
2023/03/25 08:35:06;;;;;;;32.10;4.30;;;;;;;16.12;53.12;99345.50;4897334;29;20021;-94
2023/03/25 08:37:34;;;;;;;24.38;3.80;;;;;;;16.22;53.65;99372.25;4897263;29;20029;-95
2023/03/25 08:40:02;;;;;;;21.50;3.97;;;;;;;15.64;54.16;99354.44;4913236;29;20036;-95
2023/03/25 08:42:28;;;;;;;35.15;4.50;;;;;;;14.39;58.06;99360.00;4899401;29;20084;-96
2023/03/25 08:44:53;;;;;;;32.65;4.38;;;;;;;15.16;56.71;99389.31;4897154;29;20076;-95
2023/03/25 08:47:22;;;;;;;27.75;4.72;;;;;;;14.43;57.70;99374.31;4897743;29;20033;-93
2023/03/25 08:49:47;;;;;;;43.15;4.85;;;;;;;14.15;59.44;99388.16;4897641;29;20029;-96
2023/03/25 08:52:13;;;;;;;24.27;4.43;;;;;;;15.06;56.95;99359.97;4913435;29;20028;-95
2023/03/25 08:54:38;;;;;;;29.67;4.18;;;;;;;15.18;56.19;99390.81;4913163;29;20115;-96
2023/03/25 08:57:04;;;;;;;33.42;5.63;;;;;;;15.40;54.90;99389.63;4913361;29;20024;-95
2023/03/25 08:59:30;;;;;;;29.50;7.20;;;;;;;17.27;50.98;99408.75;4912909;29;20024;-96
2023/03/25 09:01:55;;;;;;;30.65;5.43;;;;;;;17.68;50.77;99395.81;4896889;29;20020;-95
2023/03/25 09:04:20;;;;;;;28.10;3.88;;;;;;;16.09;53.65;99413.44;4912710;29;20084;-95
2023/03/25 09:06:48;;;;;;;26.52;3.83;;;;;;;15.52;55.38;99423.25;4896944;29;20043;-95
2023/03/25 09:09:14;;;;;;;46.65;9.80;;;;;;;15.48;55.48;99424.47;4911897;29;20029;-95
2023/03/25 09:11:40;;;;;;;29.35;5.53;;;;;;;16.09;54.35;99421.25;4912669;29;20029;-96
2023/03/25 09:14:05;;;;;;;26.73;5.68;;;;;;;16.61;52.78;99417.97;4896848;29;20025;-95
2023/03/25 09:16:31;;;;;;;26.58;4.57;;;;;;;21.49;42.16;99424.97;4896996;29;20048;-96
2023/03/25 09:18:57;;;;;;;23.80;4.05;;;;;;;17.85;48.76;99418.44;4912819;29;20032;-95
2023/03/25 09:21:22;;;;;;;31.77;5.88;;;;;;;16.25;52.19;99429.22;4896666;29;20080;-95
2023/03/25 09:23:48;;;;;;;24.25;4.13;;;;;;;15.71;54.01;99414.53;4896856;29;20055;-96
2023/03/25 09:26:14;;;;;;;25.05;4.65;;;;;;;14.51;57.10;99426.38;4897009;29;20054;-96
2023/03/25 09:28:39;;;;;;;18.77;3.35;;;;;;;15.20;55.82;99448.69;4897138;29;20440;-95
2023/03/25 09:31:06;;;;;;;24.70;3.80;;;;;;;14.55;57.81;99419.97;4896649;29;20119;-96
2023/03/25 09:33:32;;;;;;;31.35;4.40;;;;;;;14.33;58.55;99448.78;4896819;29;20061;-96
2023/03/25 09:35:57;;;;;;;29.25;4.30;;;;;;;14.12;58.91;99433.34;4896396;29;20032;-95
2023/03/25 09:38:23;;;;;;;28.17;4.25;;;;;;;15.01;57.20;99435.75;4912682;29;20033;-95
2023/03/25 09:40:48;;;;;;;22.50;5.15;;;;;;;17.41;50.80;99447.28;4897078;29;20075;-96
2023/03/25 09:43:28;;;;;;;26.70;3.78;;;;;;;18.11;48.48;99478.34;4896742;29;20025;-95
2023/03/25 09:45:55;;;;;;;19.60;3.33;;;;;;;17.65;49.02;99454.38;4897233;29;20068;-96
2023/03/25 09:48:37;;;;;;;20.38;4.35;;;;;;;18.94;47.54;99487.09;4896916;29;20028;-95
2023/03/25 09:51:06;;;;;;;21.17;3.80;;;;;;;24.99;37.73;99506.38;4896668;29;20073;-96
2023/03/25 09:53:44;;;;;;;23.55;4.30;;;;;;;22.74;39.79;99505.31;4896657;29;20506;-95
2023/03/25 09:56:22;;;;;;;21.33;3.53;;;;;;;28.44;30.42;99493.31;4912338;29;20103;-95
2023/03/25 09:58:55;;;;;;;26.90;3.85;;;;;;;22.84;38.73;99492.63;4896690;29;20067;-96
2023/03/25 10:01:42;;;;;;;20.10;4.55;;;;;;;19.46;44.72;99478.81;4896959;29;20060;-94
2023/03/25 10:04:10;;;;;;;19.23;4.00;;;;;;;19.60;45.89;99503.44;4896513;29;20024;-95
2023/03/25 10:06:50;;;;;;;22.92;3.42;;;;;;;18.12;48.47;99497.47;4896563;29;20025;-96
2023/03/25 10:09:33;;;;;;;30.60;6.20;;;;;;;20.92;43.49;99520.88;4896577;29;20040;-95
2023/03/25 10:12:08;;;;;;;27.95;4.35;;;;;;;20.12;44.45;99525.66;4896481;29;20061;-95
2023/03/25 10:14:53;;;;;;;31.40;3.95;;;;;;;17.85;48.47;99504.56;4896633;29;20064;-94
2023/03/25 10:17:26;;;;;;;21.23;3.78;;;;;;;19.52;45.60;99499.03;4896491;29;20029;-95
2023/03/25 10:19:57;;;;;;;29.48;4.80;;;;;;;19.29;45.94;99532.13;4898429;29;20029;-94
2023/03/25 10:22:35;;;;;;;17.20;3.53;;;;;;;20.13;43.88;99529.91;4900318;29;20033;-95
2023/03/25 10:25:04;;;;;;;25.88;4.82;;;;;;;19.05;45.75;99546.09;4900316;29;20028;-95
2023/03/25 10:27:44;;;;;;;27.25;4.20;;;;;;;20.29;44.71;99597.97;4915802;29;20028;-95
2023/03/25 10:30:16;;;;;;;29.10;5.45;;;;;;;21.01;43.73;99554.88;4899916;29;20028;-95
2023/03/25 10:32:48;;;;;;;21.40;3.67;;;;;;;19.95;44.44;99575.50;4900045;29;20052;-95
2023/03/25 10:35:37;;;;;;;19.55;4.68;;;;;;;18.48;47.42;99544.22;4899687;29;20068;-96
2023/03/25 10:38:14;;;;;;;17.58;3.60;;;;;;;18.54;47.20;99554.84;4899785;29;20484;-93
2023/03/25 10:40:48;;;;;;;23.85;4.32;;;;;;;20.59;44.93;99566.69;4899559;29;20032;-94
2023/03/25 10:43:27;;;;;;;23.85;3.97;;;;;;;21.19;42.52;99550.13;4915576;29;20024;-95
2023/03/25 10:46:05;;;;;;;26.35;4.07;;;;;;;17.59;49.07;99553.38;4901203;29;20033;-95
2023/03/25 10:48:31;;;;;;;25.13;4.55;;;;;;;17.09;50.69;99547.84;4899547;29;20040;-95
2023/03/25 10:51:10;;;;;;;22.83;4.28;;;;;;;16.00;55.64;99550.50;4899508;29;20036;-94
2023/03/25 10:53:36;;;;;;;28.25;5.32;;;;;;;16.68;52.69;99557.91;4915573;29;20029;-96
2023/03/25 10:56:04;;;;;;;22.90;3.38;;;;;;;17.59;50.04;99577.66;4899603;29;20052;-93
2023/03/25 10:58:31;;;;;;;26.33;4.25;;;;;;;20.77;44.34;99588.19;4899429;29;20407;-93
2023/03/25 11:00:58;;;;;;;33.35;5.13;;;;;;;19.71;46.47;99563.31;4899456;29;20032;-94
2023/03/25 11:03:30;;;;;;;17.60;3.38;;;;;;;20.01;43.26;99569.56;4915098;29;20522;-94
2023/03/25 11:05:56;;;;;;;21.83;4.30;;;;;;;24.73;37.03;99565.28;4914946;29;20033;-95
2023/03/25 11:08:22;;;;;;;21.95;3.17;;;;;;;25.43;33.81;99452.06;4898860;29;20025;-95
2023/03/25 11:10:54;;;;;;;16.33;3.22;;;;;;;26.98;31.96;99450.88;4899488;29;20028;-95
2023/03/25 11:13:23;;;;;;;15.98;3.58;;;;;;;27.53;31.81;99562.19;4899237;29;20060;-95
2023/03/25 11:15:52;;;;;;;15.77;3.17;;;;;;;27.46;31.00;99556.19;4899138;29;20032;-94
2023/03/25 11:18:31;;;;;;;20.20;3.03;;;;;;;27.97;30.04;99382.59;4899546;29;20029;-95
2023/03/25 11:21:06;;;;;;;12.55;2.65;;;;;;;28.47;28.97;99535.34;4914590;29;20032;-94
2023/03/25 11:23:35;;;;;;;12.75;2.67;;;;;;;27.14;31.22;99564.19;4898766;29;20060;-94
2023/03/25 11:26:22;;;;;;;15.65;2.72;;;;;;;26.94;30.85;99447.84;4914622;29;20063;-95
2023/03/25 11:28:52;;;;;;;11.43;2.45;;;;;;;25.40;32.55;99441.94;4914403;29;20029;-95
2023/03/25 11:31:21;;;;;;;10.50;2.97;;;;;;;27.07;30.93;99560.81;4913761;29;20092;-94
2023/03/25 11:34:04;;;;;;;9.95;1.95;;;;;;;26.64;31.36;99572.13;4898675;29;20403;-96
2023/03/25 11:36:34;;;;;;;12.50;3.03;;;;;;;26.44;31.62;99541.28;4898691;29;20066;-94